sensor_id;sensor_type;location;lat;lon;timestamp;P1;durP1;ratioP1;P2;durP2;ratioP2
8556;SDS011;4316;53.840;10.762;2022-08-18T00:01:16;3.03;;;2.13;;
8556;SDS011;4316;53.840;10.762;2022-08-18T00:03:43;3.45;;;2.13;;
8556;SDS011;4316;53.840;10.762;2022-08-18T00:06:09;4.93;;;2.00;;
8556;SDS011;4316;53.840;10.762;2022-08-18T00:08:34;6.72;;;2.08;;
8556;SDS011;4316;53.840;10.762;2022-08-18T00:11:00;4.50;;;2.05;;
8556;SDS011;4316;53.840;10.762;2022-08-18T00:13:26;9.00;;;3.10;;
8556;SDS011;4316;53.840;10.762;2022-08-18T00:15:51;13.57;;;3.28;;
8556;SDS011;4316;53.840;10.762;2022-08-18T00:18:17;10.38;;;3.30;;
8556;SDS011;4316;53.840;10.762;2022-08-18T00:20:43;18.50;;;3.30;;
8556;SDS011;4316;53.840;10.762;2022-08-18T00:23:08;8.65;;;2.25;;
8556;SDS011;4316;53.840;10.762;2022-08-18T00:25:34;11.52;;;2.45;;
8556;SDS011;4316;53.840;10.762;2022-08-18T00:28:00;8.48;;;2.90;;
8556;SDS011;4316;53.840;10.762;2022-08-18T00:30:25;6.85;;;2.55;;
8556;SDS011;4316;53.840;10.762;2022-08-18T00:32:53;7.72;;;2.30;;
8556;SDS011;4316;53.840;10.762;2022-08-18T00:35:23;8.65;;;2.60;;
8556;SDS011;4316;53.840;10.762;2022-08-18T00:37:52;6.60;;;2.45;;
8556;SDS011;4316;53.840;10.762;2022-08-18T00:40:23;6.80;;;2.40;;
8556;SDS011;4316;53.840;10.762;2022-08-18T00:42:56;4.90;;;2.20;;
8556;SDS011;4316;53.840;10.762;2022-08-18T00:45:27;7.22;;;2.42;;
8556;SDS011;4316;53.840;10.762;2022-08-18T00:47:57;6.68;;;1.88;;
8556;SDS011;4316;53.840;10.762;2022-08-18T00:50:33;8.93;;;2.05;;
8556;SDS011;4316;53.840;10.762;2022-08-18T00:53:06;4.40;;;2.17;;
8556;SDS011;4316;53.840;10.762;2022-08-18T00:55:36;7.55;;;1.92;;
8556;SDS011;4316;53.840;10.762;2022-08-18T00:58:06;5.43;;;2.10;;
8556;SDS011;4316;53.840;10.762;2022-08-18T01:00:35;3.95;;;1.85;;
8556;SDS011;4316;53.840;10.762;2022-08-18T01:03:04;1.77;;;1.45;;
8556;SDS011;4316;53.840;10.762;2022-08-18T01:05:41;4.00;;;1.30;;
8556;SDS011;4316;53.840;10.762;2022-08-18T01:08:15;6.35;;;1.67;;
8556;SDS011;4316;53.840;10.762;2022-08-18T01:10:41;2.28;;;1.70;;
8556;SDS011;4316;53.840;10.762;2022-08-18T01:13:08;4.60;;;1.58;;
8556;SDS011;4316;53.840;10.762;2022-08-18T01:15:34;2.80;;;1.38;;
8556;SDS011;4316;53.840;10.762;2022-08-18T01:18:02;4.43;;;1.23;;
8556;SDS011;4316;53.840;10.762;2022-08-18T01:20:53;5.50;;;1.45;;
8556;SDS011;4316;53.840;10.762;2022-08-18T01:23:57;7.45;;;2.13;;
8556;SDS011;4316;53.840;10.762;2022-08-18T01:26:26;7.28;;;1.90;;
8556;SDS011;4316;53.840;10.762;2022-08-18T01:28:54;4.07;;;1.65;;
8556;SDS011;4316;53.840;10.762;2022-08-18T01:31:41;4.05;;;2.00;;
8556;SDS011;4316;53.840;10.762;2022-08-18T01:34:14;6.80;;;1.98;;
8556;SDS011;4316;53.840;10.762;2022-08-18T01:36:40;3.38;;;1.88;;
8556;SDS011;4316;53.840;10.762;2022-08-18T01:39:08;4.55;;;1.90;;
8556;SDS011;4316;53.840;10.762;2022-08-18T01:41:35;3.53;;;1.95;;
8556;SDS011;4316;53.840;10.762;2022-08-18T01:44:02;4.68;;;2.63;;
8556;SDS011;4316;53.840;10.762;2022-08-18T01:46:29;2.75;;;2.08;;
8556;SDS011;4316;53.840;10.762;2022-08-18T01:48:57;3.47;;;2.50;;
8556;SDS011;4316;53.840;10.762;2022-08-18T01:51:25;5.00;;;2.58;;
8556;SDS011;4316;53.840;10.762;2022-08-18T01:53:52;4.75;;;2.63;;
8556;SDS011;4316;53.840;10.762;2022-08-18T01:56:18;3.92;;;2.50;;
8556;SDS011;4316;53.840;10.762;2022-08-18T01:58:43;10.07;;;3.35;;
8556;SDS011;4316;53.840;10.762;2022-08-18T02:01:11;5.35;;;3.30;;
8556;SDS011;4316;53.840;10.762;2022-08-18T02:03:40;10.93;;;2.97;;
8556;SDS011;4316;53.840;10.762;2022-08-18T02:06:12;8.30;;;3.05;;
8556;SDS011;4316;53.840;10.762;2022-08-18T02:08:39;5.55;;;3.42;;
8556;SDS011;4316;53.840;10.762;2022-08-18T02:11:05;6.80;;;3.33;;
8556;SDS011;4316;53.840;10.762;2022-08-18T02:13:32;4.90;;;3.40;;
8556;SDS011;4316;53.840;10.762;2022-08-18T02:15:58;7.93;;;3.90;;
8556;SDS011;4316;53.840;10.762;2022-08-18T02:18:28;6.95;;;3.88;;
8556;SDS011;4316;53.840;10.762;2022-08-18T02:20:56;4.22;;;3.45;;
8556;SDS011;4316;53.840;10.762;2022-08-18T02:23:23;5.47;;;2.97;;
8556;SDS011;4316;53.840;10.762;2022-08-18T02:25:49;5.15;;;3.03;;
8556;SDS011;4316;53.840;10.762;2022-08-18T02:28:14;8.07;;;3.78;;
8556;SDS011;4316;53.840;10.762;2022-08-18T02:30:41;7.97;;;3.50;;
8556;SDS011;4316;53.840;10.762;2022-08-18T02:33:07;4.03;;;3.30;;
8556;SDS011;4316;53.840;10.762;2022-08-18T02:35:34;3.95;;;2.90;;
8556;SDS011;4316;53.840;10.762;2022-08-18T02:38:02;3.95;;;3.05;;
8556;SDS011;4316;53.840;10.762;2022-08-18T02:40:29;4.25;;;3.22;;
8556;SDS011;4316;53.840;10.762;2022-08-18T02:42:57;5.82;;;3.67;;
8556;SDS011;4316;53.840;10.762;2022-08-18T02:45:23;4.75;;;3.53;;
8556;SDS011;4316;53.840;10.762;2022-08-18T02:47:52;3.58;;;3.10;;
8556;SDS011;4316;53.840;10.762;2022-08-18T02:50:20;5.40;;;2.92;;
8556;SDS011;4316;53.840;10.762;2022-08-18T02:52:46;4.72;;;3.28;;
8556;SDS011;4316;53.840;10.762;2022-08-18T02:55:12;4.57;;;3.40;;
8556;SDS011;4316;53.840;10.762;2022-08-18T02:57:42;8.60;;;3.47;;
8556;SDS011;4316;53.840;10.762;2022-08-18T03:00:10;5.05;;;3.30;;
8556;SDS011;4316;53.840;10.762;2022-08-18T03:02:38;4.72;;;2.95;;
8556;SDS011;4316;53.840;10.762;2022-08-18T03:05:05;6.43;;;3.80;;
8556;SDS011;4316;53.840;10.762;2022-08-18T03:07:31;5.43;;;2.80;;
8556;SDS011;4316;53.840;10.762;2022-08-18T03:09:57;3.30;;;3.00;;
8556;SDS011;4316;53.840;10.762;2022-08-18T03:12:22;7.28;;;3.45;;
8556;SDS011;4316;53.840;10.762;2022-08-18T03:14:49;4.18;;;3.53;;
8556;SDS011;4316;53.840;10.762;2022-08-18T03:17:14;4.53;;;3.63;;
8556;SDS011;4316;53.840;10.762;2022-08-18T03:19:40;5.63;;;3.75;;
8556;SDS011;4316;53.840;10.762;2022-08-18T03:22:09;6.38;;;3.65;;
8556;SDS011;4316;53.840;10.762;2022-08-18T03:24:35;6.13;;;3.55;;
8556;SDS011;4316;53.840;10.762;2022-08-18T03:27:03;8.45;;;3.67;;
8556;SDS011;4316;53.840;10.762;2022-08-18T03:29:30;9.88;;;3.92;;
8556;SDS011;4316;53.840;10.762;2022-08-18T03:31:56;7.03;;;4.45;;
8556;SDS011;4316;53.840;10.762;2022-08-18T03:34:22;4.20;;;3.55;;
8556;SDS011;4316;53.840;10.762;2022-08-18T03:36:48;9.95;;;4.55;;
8556;SDS011;4316;53.840;10.762;2022-08-18T03:39:14;9.48;;;4.47;;
8556;SDS011;4316;53.840;10.762;2022-08-18T03:41:42;9.65;;;4.25;;
8556;SDS011;4316;53.840;10.762;2022-08-18T03:44:10;10.27;;;4.15;;
8556;SDS011;4316;53.840;10.762;2022-08-18T03:46:41;8.55;;;4.35;;
8556;SDS011;4316;53.840;10.762;2022-08-18T03:49:08;9.75;;;4.18;;
8556;SDS011;4316;53.840;10.762;2022-08-18T03:51:33;9.20;;;4.20;;
8556;SDS011;4316;53.840;10.762;2022-08-18T03:54:00;8.68;;;3.55;;
8556;SDS011;4316;53.840;10.762;2022-08-18T03:56:28;12.27;;;4.88;;
8556;SDS011;4316;53.840;10.762;2022-08-18T03:58:59;6.90;;;4.15;;
8556;SDS011;4316;53.840;10.762;2022-08-18T04:01:32;17.88;;;4.25;;
8556;SDS011;4316;53.840;10.762;2022-08-18T04:04:03;6.25;;;3.95;;
8556;SDS011;4316;53.840;10.762;2022-08-18T04:06:31;9.90;;;4.88;;
8556;SDS011;4316;53.840;10.762;2022-08-18T04:09:01;7.70;;;4.47;;
8556;SDS011;4316;53.840;10.762;2022-08-18T04:11:30;7.10;;;4.15;;
8556;SDS011;4316;53.840;10.762;2022-08-18T04:13:59;12.63;;;7.20;;
8556;SDS011;4316;53.840;10.762;2022-08-18T04:16:26;12.52;;;5.07;;
8556;SDS011;4316;53.840;10.762;2022-08-18T04:18:53;10.15;;;4.72;;
8556;SDS011;4316;53.840;10.762;2022-08-18T04:21:21;7.65;;;4.45;;
8556;SDS011;4316;53.840;10.762;2022-08-18T04:23:48;12.15;;;4.82;;
8556;SDS011;4316;53.840;10.762;2022-08-18T04:26:13;15.70;;;4.55;;
8556;SDS011;4316;53.840;10.762;2022-08-18T04:28:39;10.18;;;4.43;;
8556;SDS011;4316;53.840;10.762;2022-08-18T04:31:10;11.52;;;4.00;;
8556;SDS011;4316;53.840;10.762;2022-08-18T04:33:38;5.78;;;3.85;;
8556;SDS011;4316;53.840;10.762;2022-08-18T04:36:12;9.65;;;4.43;;
8556;SDS011;4316;53.840;10.762;2022-08-18T04:38:39;8.48;;;4.40;;
8556;SDS011;4316;53.840;10.762;2022-08-18T04:41:08;8.68;;;4.60;;
8556;SDS011;4316;53.840;10.762;2022-08-18T04:43:36;9.50;;;5.00;;
8556;SDS011;4316;53.840;10.762;2022-08-18T04:46:03;10.13;;;5.35;;
8556;SDS011;4316;53.840;10.762;2022-08-18T04:48:33;8.65;;;5.35;;
8556;SDS011;4316;53.840;10.762;2022-08-18T04:53:31;13.57;;;5.28;;
8556;SDS011;4316;53.840;10.762;2022-08-18T04:56:15;8.73;;;4.85;;
8556;SDS011;4316;53.840;10.762;2022-08-18T04:58:52;10.82;;;5.82;;
8556;SDS011;4316;53.840;10.762;2022-08-18T05:01:20;9.23;;;5.47;;
8556;SDS011;4316;53.840;10.762;2022-08-18T05:03:49;10.57;;;5.57;;
8556;SDS011;4316;53.840;10.762;2022-08-18T05:06:16;13.60;;;5.40;;
8556;SDS011;4316;53.840;10.762;2022-08-18T05:08:43;11.75;;;5.40;;
8556;SDS011;4316;53.840;10.762;2022-08-18T05:11:10;10.98;;;5.70;;
8556;SDS011;4316;53.840;10.762;2022-08-18T05:13:35;10.75;;;5.53;;
8556;SDS011;4316;53.840;10.762;2022-08-18T05:16:01;9.30;;;6.10;;
8556;SDS011;4316;53.840;10.762;2022-08-18T05:18:28;14.00;;;5.85;;
8556;SDS011;4316;53.840;10.762;2022-08-18T05:20:55;6.95;;;4.80;;
8556;SDS011;4316;53.840;10.762;2022-08-18T05:23:22;14.18;;;5.38;;
8556;SDS011;4316;53.840;10.762;2022-08-18T05:25:48;9.10;;;5.65;;
8556;SDS011;4316;53.840;10.762;2022-08-18T05:28:14;10.93;;;5.15;;
8556;SDS011;4316;53.840;10.762;2022-08-18T05:30:41;14.63;;;5.88;;
8556;SDS011;4316;53.840;10.762;2022-08-18T05:33:07;8.70;;;4.65;;
8556;SDS011;4316;53.840;10.762;2022-08-18T05:35:36;10.20;;;5.55;;
8556;SDS011;4316;53.840;10.762;2022-08-18T05:38:23;10.95;;;5.43;;
8556;SDS011;4316;53.840;10.762;2022-08-18T05:41:06;10.40;;;5.28;;
8556;SDS011;4316;53.840;10.762;2022-08-18T05:43:35;13.00;;;5.25;;
8556;SDS011;4316;53.840;10.762;2022-08-18T05:46:02;11.88;;;5.95;;
8556;SDS011;4316;53.840;10.762;2022-08-18T05:48:30;10.73;;;6.05;;
8556;SDS011;4316;53.840;10.762;2022-08-18T05:50:57;11.80;;;7.13;;
8556;SDS011;4316;53.840;10.762;2022-08-18T05:53:27;14.30;;;6.05;;
8556;SDS011;4316;53.840;10.762;2022-08-18T05:56:13;14.00;;;5.28;;
8556;SDS011;4316;53.840;10.762;2022-08-18T05:59:06;10.30;;;5.20;;
8556;SDS011;4316;53.840;10.762;2022-08-18T06:01:34;11.30;;;5.45;;
8556;SDS011;4316;53.840;10.762;2022-08-18T06:04:12;8.75;;;5.25;;
8556;SDS011;4316;53.840;10.762;2022-08-18T06:06:49;9.30;;;5.40;;
8556;SDS011;4316;53.840;10.762;2022-08-18T06:09:25;9.05;;;5.15;;
8556;SDS011;4316;53.840;10.762;2022-08-18T06:12:15;13.52;;;6.40;;
8556;SDS011;4316;53.840;10.762;2022-08-18T06:14:47;11.63;;;6.07;;
8556;SDS011;4316;53.840;10.762;2022-08-18T06:17:21;7.80;;;5.22;;
8556;SDS011;4316;53.840;10.762;2022-08-18T06:20:36;12.80;;;6.22;;
8556;SDS011;4316;53.840;10.762;2022-08-18T06:22:55;8.55;;;5.15;;
8556;SDS011;4316;53.840;10.762;2022-08-18T06:25:51;10.05;;;5.70;;
8556;SDS011;4316;53.840;10.762;2022-08-18T06:28:19;12.23;;;5.70;;
8556;SDS011;4316;53.840;10.762;2022-08-18T06:31:03;13.73;;;6.22;;
8556;SDS011;4316;53.840;10.762;2022-08-18T06:36:24;10.52;;;5.45;;
8556;SDS011;4316;53.840;10.762;2022-08-18T06:41:58;10.18;;;5.82;;
8556;SDS011;4316;53.840;10.762;2022-08-18T06:47:24;12.80;;;5.25;;
8556;SDS011;4316;53.840;10.762;2022-08-18T06:50:25;9.52;;;5.55;;
8556;SDS011;4316;53.840;10.762;2022-08-18T06:52:58;10.88;;;5.78;;
8556;SDS011;4316;53.840;10.762;2022-08-18T07:00:44;15.45;;;6.03;;
8556;SDS011;4316;53.840;10.762;2022-08-18T07:06:03;9.10;;;4.95;;
8556;SDS011;4316;53.840;10.762;2022-08-18T07:08:36;8.13;;;4.88;;
8556;SDS011;4316;53.840;10.762;2022-08-18T07:13:49;8.82;;;5.03;;
8556;SDS011;4316;53.840;10.762;2022-08-18T07:16:29;12.90;;;5.15;;
8556;SDS011;4316;53.840;10.762;2022-08-18T07:19:08;10.77;;;5.35;;
8556;SDS011;4316;53.840;10.762;2022-08-18T07:21:40;11.23;;;5.03;;
8556;SDS011;4316;53.840;10.762;2022-08-18T07:24:21;11.93;;;4.72;;
8556;SDS011;4316;53.840;10.762;2022-08-18T07:26:59;13.35;;;4.88;;
8556;SDS011;4316;53.840;10.762;2022-08-18T07:29:31;7.90;;;4.95;;
8556;SDS011;4316;53.840;10.762;2022-08-18T07:32:10;8.38;;;4.95;;
8556;SDS011;4316;53.840;10.762;2022-08-18T07:34:46;8.90;;;4.72;;
8556;SDS011;4316;53.840;10.762;2022-08-18T07:37:17;13.65;;;4.93;;
8556;SDS011;4316;53.840;10.762;2022-08-18T07:39:55;7.15;;;5.15;;
8556;SDS011;4316;53.840;10.762;2022-08-18T07:45:18;10.35;;;5.28;;
8556;SDS011;4316;53.840;10.762;2022-08-18T07:50:16;9.80;;;4.53;;
8556;SDS011;4316;53.840;10.762;2022-08-18T07:52:47;14.27;;;5.00;;
8556;SDS011;4316;53.840;10.762;2022-08-18T07:55:32;8.73;;;5.10;;
8556;SDS011;4316;53.840;10.762;2022-08-18T08:00:48;9.75;;;4.68;;
8556;SDS011;4316;53.840;10.762;2022-08-18T08:03:45;6.88;;;4.72;;
8556;SDS011;4316;53.840;10.762;2022-08-18T08:06:22;6.18;;;4.22;;
8556;SDS011;4316;53.840;10.762;2022-08-18T08:09:03;10.23;;;4.65;;
8556;SDS011;4316;53.840;10.762;2022-08-18T08:11:47;7.80;;;4.85;;
8556;SDS011;4316;53.840;10.762;2022-08-18T08:17:09;8.75;;;5.28;;
8556;SDS011;4316;53.840;10.762;2022-08-18T08:23:02;8.57;;;4.82;;
8556;SDS011;4316;53.840;10.762;2022-08-18T08:36:53;7.93;;;5.30;;
8556;SDS011;4316;53.840;10.762;2022-08-18T08:39:44;11.60;;;5.20;;
8556;SDS011;4316;53.840;10.762;2022-08-18T08:45:04;11.90;;;5.45;;
8556;SDS011;4316;53.840;10.762;2022-08-18T08:50:25;14.68;;;5.22;;
8556;SDS011;4316;53.840;10.762;2022-08-18T08:55:32;7.05;;;4.65;;
8556;SDS011;4316;53.840;10.762;2022-08-18T08:58:09;17.67;;;5.45;;
8556;SDS011;4316;53.840;10.762;2022-08-18T09:00:38;13.07;;;4.78;;
8556;SDS011;4316;53.840;10.762;2022-08-18T09:14:17;10.35;;;5.45;;
8556;SDS011;4316;53.840;10.762;2022-08-18T09:17:15;7.93;;;5.20;;
8556;SDS011;4316;53.840;10.762;2022-08-18T09:19:58;16.95;;;6.07;;
8556;SDS011;4316;53.840;10.762;2022-08-18T09:22:53;12.68;;;5.88;;
8556;SDS011;4316;53.840;10.762;2022-08-18T09:25:31;15.95;;;5.57;;
8556;SDS011;4316;53.840;10.762;2022-08-18T09:35:46;9.30;;;5.15;;
8556;SDS011;4316;53.840;10.762;2022-08-18T09:38:23;10.25;;;5.65;;
8556;SDS011;4316;53.840;10.762;2022-08-18T09:41:21;9.57;;;5.18;;
8556;SDS011;4316;53.840;10.762;2022-08-18T09:43:59;7.72;;;5.55;;
8556;SDS011;4316;53.840;10.762;2022-08-18T09:51:58;14.00;;;6.57;;
8556;SDS011;4316;53.840;10.762;2022-08-18T09:54:50;13.00;;;5.45;;
8556;SDS011;4316;53.840;10.762;2022-08-18T10:05:21;9.07;;;6.65;;
8556;SDS011;4316;53.840;10.762;2022-08-18T10:13:22;14.57;;;8.10;;
8556;SDS011;4316;53.840;10.762;2022-08-18T10:16:00;12.98;;;8.48;;
8556;SDS011;4316;53.840;10.762;2022-08-18T10:24:20;13.93;;;9.07;;
8556;SDS011;4316;53.840;10.762;2022-08-18T10:40:04;15.70;;;9.93;;
8556;SDS011;4316;53.840;10.762;2022-08-18T10:45:48;16.48;;;9.48;;
8556;SDS011;4316;53.840;10.762;2022-08-18T10:48:28;11.63;;;9.38;;
8556;SDS011;4316;53.840;10.762;2022-08-18T10:51:19;13.88;;;9.32;;
8556;SDS011;4316;53.840;10.762;2022-08-18T10:56:49;18.58;;;10.13;;
8556;SDS011;4316;53.840;10.762;2022-08-18T10:59:21;23.20;;;11.30;;
8556;SDS011;4316;53.840;10.762;2022-08-18T11:02:00;13.38;;;9.93;;
8556;SDS011;4316;53.840;10.762;2022-08-18T11:04:43;11.75;;;9.45;;
8556;SDS011;4316;53.840;10.762;2022-08-18T11:07:19;12.88;;;10.38;;
8556;SDS011;4316;53.840;10.762;2022-08-18T11:09:48;21.10;;;11.80;;
8556;SDS011;4316;53.840;10.762;2022-08-18T11:15:09;18.38;;;12.18;;
8556;SDS011;4316;53.840;10.762;2022-08-18T11:20:45;16.55;;;14.15;;
8556;SDS011;4316;53.840;10.762;2022-08-18T11:23:11;17.65;;;12.00;;
8556;SDS011;4316;53.840;10.762;2022-08-18T11:25:40;20.90;;;15.32;;
8556;SDS011;4316;53.840;10.762;2022-08-18T11:28:16;20.30;;;15.60;;
8556;SDS011;4316;53.840;10.762;2022-08-18T11:30:44;19.80;;;15.48;;
8556;SDS011;4316;53.840;10.762;2022-08-18T11:33:16;25.85;;;16.98;;
8556;SDS011;4316;53.840;10.762;2022-08-18T11:35:45;20.15;;;15.32;;
8556;SDS011;4316;53.840;10.762;2022-08-18T11:38:13;25.35;;;16.48;;
8556;SDS011;4316;53.840;10.762;2022-08-18T11:40:44;21.85;;;16.00;;
8556;SDS011;4316;53.840;10.762;2022-08-18T11:43:15;17.80;;;12.48;;
8556;SDS011;4316;53.840;10.762;2022-08-18T12:01:10;15.73;;;12.85;;
8556;SDS011;4316;53.840;10.762;2022-08-18T12:12:32;14.73;;;12.38;;
8556;SDS011;4316;53.840;10.762;2022-08-18T12:15:02;16.92;;;11.68;;
8556;SDS011;4316;53.840;10.762;2022-08-18T12:17:47;15.55;;;10.10;;
8556;SDS011;4316;53.840;10.762;2022-08-18T12:20:13;15.07;;;10.43;;
8556;SDS011;4316;53.840;10.762;2022-08-18T12:22:40;17.92;;;12.05;;
8556;SDS011;4316;53.840;10.762;2022-08-18T12:25:08;15.70;;;12.38;;
8556;SDS011;4316;53.840;10.762;2022-08-18T12:27:36;16.92;;;11.23;;
8556;SDS011;4316;53.840;10.762;2022-08-18T12:30:02;13.57;;;10.02;;
8556;SDS011;4316;53.840;10.762;2022-08-18T12:32:29;13.05;;;11.40;;
8556;SDS011;4316;53.840;10.762;2022-08-18T12:34:57;12.65;;;9.98;;
8556;SDS011;4316;53.840;10.762;2022-08-18T12:37:24;15.73;;;9.82;;
8556;SDS011;4316;53.840;10.762;2022-08-18T12:39:50;80.40;;;64.72;;
8556;SDS011;4316;53.840;10.762;2022-08-18T12:42:17;42.10;;;30.60;;
8556;SDS011;4316;53.840;10.762;2022-08-18T12:44:43;13.73;;;11.00;;
8556;SDS011;4316;53.840;10.762;2022-08-18T12:47:10;21.98;;;15.43;;
8556;SDS011;4316;53.840;10.762;2022-08-18T12:49:37;12.90;;;10.50;;
8556;SDS011;4316;53.840;10.762;2022-08-18T12:52:03;15.05;;;10.05;;
8556;SDS011;4316;53.840;10.762;2022-08-18T12:54:30;11.32;;;8.73;;
8556;SDS011;4316;53.840;10.762;2022-08-18T12:56:57;19.05;;;10.60;;
8556;SDS011;4316;53.840;10.762;2022-08-18T12:59:22;12.27;;;9.32;;
8556;SDS011;4316;53.840;10.762;2022-08-18T13:01:48;11.88;;;9.38;;
8556;SDS011;4316;53.840;10.762;2022-08-18T13:04:14;12.57;;;9.18;;
8556;SDS011;4316;53.840;10.762;2022-08-18T13:06:51;13.65;;;9.13;;
8556;SDS011;4316;53.840;10.762;2022-08-18T13:09:19;8.90;;;7.63;;
8556;SDS011;4316;53.840;10.762;2022-08-18T13:11:45;9.80;;;7.55;;
8556;SDS011;4316;53.840;10.762;2022-08-18T13:14:10;10.40;;;7.18;;
8556;SDS011;4316;53.840;10.762;2022-08-18T13:16:38;10.95;;;7.18;;
8556;SDS011;4316;53.840;10.762;2022-08-18T13:19:05;11.68;;;7.30;;
8556;SDS011;4316;53.840;10.762;2022-08-18T13:21:32;9.48;;;7.50;;
8556;SDS011;4316;53.840;10.762;2022-08-18T13:23:57;9.80;;;7.40;;
8556;SDS011;4316;53.840;10.762;2022-08-18T13:26:25;9.55;;;7.53;;
8556;SDS011;4316;53.840;10.762;2022-08-18T13:28:53;11.40;;;6.85;;
8556;SDS011;4316;53.840;10.762;2022-08-18T13:31:18;10.50;;;7.40;;
8556;SDS011;4316;53.840;10.762;2022-08-18T13:33:44;7.30;;;6.60;;
8556;SDS011;4316;53.840;10.762;2022-08-18T13:36:09;9.30;;;7.35;;
8556;SDS011;4316;53.840;10.762;2022-08-18T13:38:35;10.95;;;7.95;;
8556;SDS011;4316;53.840;10.762;2022-08-18T13:41:01;9.00;;;6.95;;
8556;SDS011;4316;53.840;10.762;2022-08-18T13:43:37;12.48;;;6.60;;
8556;SDS011;4316;53.840;10.762;2022-08-18T13:46:08;10.80;;;7.45;;
8556;SDS011;4316;53.840;10.762;2022-08-18T13:48:39;8.93;;;6.80;;
8556;SDS011;4316;53.840;10.762;2022-08-18T13:51:05;7.95;;;5.93;;
8556;SDS011;4316;53.840;10.762;2022-08-18T13:53:34;11.00;;;7.38;;
8556;SDS011;4316;53.840;10.762;2022-08-18T13:56:01;12.00;;;7.75;;
8556;SDS011;4316;53.840;10.762;2022-08-18T13:58:27;9.60;;;7.35;;
8556;SDS011;4316;53.840;10.762;2022-08-18T14:00:57;10.23;;;7.63;;
8556;SDS011;4316;53.840;10.762;2022-08-18T14:03:26;8.90;;;8.00;;
8556;SDS011;4316;53.840;10.762;2022-08-18T14:05:52;7.78;;;5.70;;
8556;SDS011;4316;53.840;10.762;2022-08-18T14:08:22;7.57;;;6.80;;
8556;SDS011;4316;53.840;10.762;2022-08-18T14:10:49;10.80;;;6.47;;
8556;SDS011;4316;53.840;10.762;2022-08-18T14:13:17;10.32;;;7.40;;
8556;SDS011;4316;53.840;10.762;2022-08-18T14:15:43;11.68;;;7.15;;
8556;SDS011;4316;53.840;10.762;2022-08-18T14:18:09;10.15;;;7.18;;
8556;SDS011;4316;53.840;10.762;2022-08-18T14:20:35;9.23;;;6.45;;
8556;SDS011;4316;53.840;10.762;2022-08-18T14:23:20;11.02;;;6.22;;
8556;SDS011;4316;53.840;10.762;2022-08-18T14:26:05;7.30;;;6.22;;
8556;SDS011;4316;53.840;10.762;2022-08-18T14:28:49;8.10;;;5.90;;
8556;SDS011;4316;53.840;10.762;2022-08-18T14:31:14;9.02;;;6.10;;
8556;SDS011;4316;53.840;10.762;2022-08-18T14:33:41;8.13;;;5.95;;
8556;SDS011;4316;53.840;10.762;2022-08-18T14:36:10;8.13;;;6.28;;
8556;SDS011;4316;53.840;10.762;2022-08-18T14:38:37;10.07;;;6.90;;
8556;SDS011;4316;53.840;10.762;2022-08-18T14:41:04;8.73;;;6.63;;
8556;SDS011;4316;53.840;10.762;2022-08-18T14:43:31;10.95;;;5.97;;
8556;SDS011;4316;53.840;10.762;2022-08-18T14:46:00;9.23;;;6.28;;
8556;SDS011;4316;53.840;10.762;2022-08-18T14:48:26;9.32;;;6.13;;
8556;SDS011;4316;53.840;10.762;2022-08-18T14:50:52;9.50;;;6.35;;
8556;SDS011;4316;53.840;10.762;2022-08-18T14:53:20;8.20;;;7.25;;
8556;SDS011;4316;53.840;10.762;2022-08-18T14:55:49;9.80;;;6.82;;
8556;SDS011;4316;53.840;10.762;2022-08-18T14:58:26;10.23;;;6.03;;
8556;SDS011;4316;53.840;10.762;2022-08-18T15:00:55;6.90;;;5.85;;
8556;SDS011;4316;53.840;10.762;2022-08-18T15:03:23;6.28;;;5.28;;
8556;SDS011;4316;53.840;10.762;2022-08-18T15:05:50;8.23;;;5.28;;
8556;SDS011;4316;53.840;10.762;2022-08-18T15:08:15;8.90;;;5.05;;
8556;SDS011;4316;53.840;10.762;2022-08-18T15:10:43;8.05;;;5.05;;
8556;SDS011;4316;53.840;10.762;2022-08-18T15:13:09;8.82;;;5.10;;
8556;SDS011;4316;53.840;10.762;2022-08-18T15:15:35;8.80;;;4.90;;
8556;SDS011;4316;53.840;10.762;2022-08-18T15:18:01;6.03;;;4.85;;
8556;SDS011;4316;53.840;10.762;2022-08-18T15:20:26;9.95;;;4.95;;
8556;SDS011;4316;53.840;10.762;2022-08-18T15:22:52;5.75;;;4.50;;
8556;SDS011;4316;53.840;10.762;2022-08-18T15:25:36;9.05;;;4.63;;
8556;SDS011;4316;53.840;10.762;2022-08-18T15:30:43;5.40;;;4.55;;
8556;SDS011;4316;53.840;10.762;2022-08-18T15:33:11;5.32;;;4.75;;
8556;SDS011;4316;53.840;10.762;2022-08-18T15:35:38;6.45;;;5.40;;
8556;SDS011;4316;53.840;10.762;2022-08-18T15:38:05;6.55;;;5.03;;
8556;SDS011;4316;53.840;10.762;2022-08-18T15:40:31;9.18;;;5.10;;
8556;SDS011;4316;53.840;10.762;2022-08-18T15:42:57;8.40;;;4.70;;
8556;SDS011;4316;53.840;10.762;2022-08-18T15:45:30;5.95;;;5.15;;
8556;SDS011;4316;53.840;10.762;2022-08-18T15:47:59;5.40;;;4.13;;
8556;SDS011;4316;53.840;10.762;2022-08-18T15:50:26;5.50;;;4.35;;
8556;SDS011;4316;53.840;10.762;2022-08-18T15:52:56;8.30;;;4.50;;
8556;SDS011;4316;53.840;10.762;2022-08-18T15:55:25;6.28;;;5.30;;
8556;SDS011;4316;53.840;10.762;2022-08-18T15:57:52;13.25;;;9.35;;
8556;SDS011;4316;53.840;10.762;2022-08-18T16:00:19;6.88;;;5.88;;
8556;SDS011;4316;53.840;10.762;2022-08-18T16:02:49;6.38;;;5.78;;
8556;SDS011;4316;53.840;10.762;2022-08-18T16:05:24;11.25;;;5.85;;
8556;SDS011;4316;53.840;10.762;2022-08-18T16:07:51;8.35;;;5.07;;
8556;SDS011;4316;53.840;10.762;2022-08-18T16:10:20;7.18;;;5.97;;
8556;SDS011;4316;53.840;10.762;2022-08-18T16:12:48;11.02;;;5.53;;
8556;SDS011;4316;53.840;10.762;2022-08-18T16:15:15;6.15;;;5.18;;
8556;SDS011;4316;53.840;10.762;2022-08-18T16:17:41;7.03;;;5.45;;
8556;SDS011;4316;53.840;10.762;2022-08-18T16:20:08;8.35;;;5.95;;
8556;SDS011;4316;53.840;10.762;2022-08-18T16:22:34;9.43;;;5.68;;
8556;SDS011;4316;53.840;10.762;2022-08-18T16:25:02;8.68;;;6.25;;
8556;SDS011;4316;53.840;10.762;2022-08-18T16:27:32;9.60;;;5.75;;
8556;SDS011;4316;53.840;10.762;2022-08-18T16:29:59;8.63;;;6.70;;
8556;SDS011;4316;53.840;10.762;2022-08-18T16:32:28;24.38;;;7.50;;
8556;SDS011;4316;53.840;10.762;2022-08-18T16:34:55;31.20;;;9.25;;
8556;SDS011;4316;53.840;10.762;2022-08-18T16:37:21;22.08;;;7.55;;
8556;SDS011;4316;53.840;10.762;2022-08-18T16:39:47;20.85;;;7.95;;
8556;SDS011;4316;53.840;10.762;2022-08-18T16:42:12;13.55;;;6.53;;
8556;SDS011;4316;53.840;10.762;2022-08-18T16:44:39;14.60;;;5.28;;
8556;SDS011;4316;53.840;10.762;2022-08-18T16:47:05;13.05;;;6.00;;
8556;SDS011;4316;53.840;10.762;2022-08-18T16:49:31;10.68;;;5.18;;
8556;SDS011;4316;53.840;10.762;2022-08-18T16:51:57;17.70;;;6.90;;
8556;SDS011;4316;53.840;10.762;2022-08-18T16:54:26;11.02;;;6.13;;
8556;SDS011;4316;53.840;10.762;2022-08-18T16:56:53;25.08;;;7.60;;
8556;SDS011;4316;53.840;10.762;2022-08-18T16:59:18;14.32;;;6.82;;
8556;SDS011;4316;53.840;10.762;2022-08-18T17:02:03;19.63;;;7.38;;
8556;SDS011;4316;53.840;10.762;2022-08-18T17:04:47;13.50;;;5.80;;
8556;SDS011;4316;53.840;10.762;2022-08-18T17:07:16;6.07;;;5.45;;
8556;SDS011;4316;53.840;10.762;2022-08-18T17:09:42;7.55;;;5.05;;
8556;SDS011;4316;53.840;10.762;2022-08-18T17:12:07;6.95;;;5.80;;
8556;SDS011;4316;53.840;10.762;2022-08-18T17:14:33;11.10;;;5.60;;
8556;SDS011;4316;53.840;10.762;2022-08-18T17:17:01;9.52;;;4.97;;
8556;SDS011;4316;53.840;10.762;2022-08-18T17:19:28;7.28;;;5.50;;
8556;SDS011;4316;53.840;10.762;2022-08-18T17:21:57;6.28;;;5.28;;
8556;SDS011;4316;53.840;10.762;2022-08-18T17:24:24;17.90;;;5.25;;
8556;SDS011;4316;53.840;10.762;2022-08-18T17:26:58;6.70;;;5.13;;
8556;SDS011;4316;53.840;10.762;2022-08-18T17:29:42;6.65;;;4.93;;
8556;SDS011;4316;53.840;10.762;2022-08-18T17:35:07;6.32;;;4.72;;
8556;SDS011;4316;53.840;10.762;2022-08-18T17:37:40;6.72;;;4.90;;
8556;SDS011;4316;53.840;10.762;2022-08-18T17:41:01;5.38;;;4.45;;
8556;SDS011;4316;53.840;10.762;2022-08-18T17:43:09;5.72;;;4.40;;
8556;SDS011;4316;53.840;10.762;2022-08-18T17:45:52;5.82;;;4.72;;
8556;SDS011;4316;53.840;10.762;2022-08-18T17:48:26;4.93;;;4.47;;
8556;SDS011;4316;53.840;10.762;2022-08-18T17:51:07;4.40;;;4.00;;